Duchesne, UT (84021)

5:24 AM MDT on September 23, 2014 (GMT -0600)
RAWS BLACKTAIL UT US | Change Station
CLOSE
Current Station
Personal Weather Station
Location: Tabiona, UT
Elevation: 7311 ft
Nearby Weather Stations

Elev 7311 ft 40.28 °N, 110.56 °W | Updated 53 minutes ago

Partly Cloudy
Partly Cloudy
54 °F
Feels Like 54 °F
N
6
Wind Variable Wind from WNW
Gusts 8.0 mph

Today
High -- | Low -- °F
--% Chance of Precip.
Yesterday
High -- | Low -- °F
Precip. -- in
7:10 AM 7:16 PM
Waning Crescent, 1% visible
Pressure 30.07 in
Visibility 10.0 miles
Clouds Clear
Dew Point 43 °F
Humidity 66%
Rainfall 0.01 in
Snow Depth 0 in
UV 0 out of 12
Pollen 5.00 out of 12
Air Quality Not available.
Flu Activity Not available.
METAR KPUC 231053Z AUTO 00000KT 10SM CLR 13/10 A3023 RMK AO2 SLP183 T01330100

More Conditions Fewer Conditions

Pressure 30.07 in
Visibility 10.0 miles
Clouds Clear
Dew Point 43 °F
Humidity 66%
Rainfall 0.01 in
Snow Depth 0 in
UV 0 out of 12
Pollen 5.00 out of 12
Air Quality Not available.
Flu Activity Not available.
METAR KPUC 231053Z AUTO 00000KT 10SM CLR 13/10 A3023 RMK AO2 SLP183 T01330100

More Conditions Fewer Conditions

10-Day Weather Forecast

Almanac

Astronomy

Sep. 23, 2014 Rise Set
Actual Time 7:10 AM MDT 7:16 PM MDT
Civil Twilight 6:43 AM MDT 7:43 PM MDT
Nautical Twilight 6:11 AM MDT 8:15 PM MDT
Astronomical Twilight 5:39 AM MDT 8:47 PM MDT
Moon 6:37 AM MDT 6:57 PM MDT
Length of Visible Light 13h 00m
Length of Day
12h 06m
Tomorrow will be 2m 36s shorter.
Waning Crescent, 1% of the Moon is Illuminated
Today
Waning Crescent
Sep 24
New
Oct 1
First Quarter
Oct 8
Full
Oct 15
Last Quarter

Today's Extremes

State Highs State Lows

Community

WunderPhotos

Upload Photos

1,755,645 photos uploaded!

Nearby

Snow Depth

Station Depth Elevation
Kimberly Mine 0 in 9300 ft
Clear Creek #1 0 in 9200 ft
Ben Lomond Trail 2 in 6000 ft
Rock Creek 1 in 7900 ft
Agua Canyon 0 in 8900 ft

Earthquake Activity

City Distance Mag. Time & Date
No recent earthquake activity has been reported nearby.
Minimum magnitude displayed is 2.5.

Coastal Water Temperatures

Place Temperature
No Stations Reporting

Nearby Weather Stations